YWGM weather

White Gum Air Park
York, Western Australia, Australia

Public forecast

Using degrees Celsius for public forecast. Weather courtesy of forecast.io.

Closest aviation weather report (METAR) to White Gum Air Park

Closest report is RAAF Base Pearce, 48.5 nm (89.8 km) WNW. Retrieved 2019/10/14 00:30 UTC (5 minutes ago):

YPEA 140030Z 17008KT 9999 FEW020 BKN048 16/12 Q1019 FM0130 18008KT 9999 -SHRA BKN030

Closest aviation forecast (TAF) to White Gum Air Park

Closest forecast is RAAF Base Pearce, 48.5 nm (89.8 km) WNW. Retrieved 2019-10-14 00:00 UTC (35 minutes ago):

TAF YPEA 132201Z 1400/1418 18008KT 9999 -SHRA BKN030 FM140400 22014KT CAVOK